createdAt,value
2018-04-02T00:00:01.025Z,7.11
2018-04-02T00:02:29.485Z,6.98
2018-04-02T00:04:57.896Z,6.91
2018-04-02T00:07:26.351Z,6.94
2018-04-02T00:09:54.779Z,7.07
2018-04-02T00:12:23.168Z,7.05
2018-04-02T00:14:51.654Z,7.07
2018-04-02T00:17:20.068Z,7.08
2018-04-02T00:19:48.440Z,7.00
2018-04-02T00:22:16.888Z,6.85
2018-04-02T00:24:45.293Z,6.93
2018-04-02T00:27:13.749Z,6.81
2018-04-02T00:29:42.157Z,7.01
2018-04-02T00:32:10.612Z,7.05
2018-04-02T00:34:38.999Z,7.07
2018-04-02T00:37:07.401Z,6.97
2018-04-02T00:39:35.862Z,6.86
2018-04-02T00:42:04.381Z,6.89
2018-04-02T00:44:32.787Z,6.81
2018-04-02T00:47:01.261Z,6.87
2018-04-02T00:49:29.705Z,6.93
2018-04-02T00:51:58.151Z,7.09
2018-04-02T00:54:26.580Z,6.73
2018-04-02T00:56:54.982Z,7.06
2018-04-02T00:59:23.441Z,6.97
2018-04-02T01:01:51.823Z,6.98
2018-04-02T01:04:20.261Z,6.87
2018-04-02T01:06:48.641Z,6.74
2018-04-02T01:09:17.087Z,6.88
2018-04-02T01:11:45.523Z,6.88
2018-04-02T01:14:13.932Z,6.98
2018-04-02T01:16:42.406Z,6.88
2018-04-02T01:19:10.801Z,6.74
2018-04-02T01:21:39.209Z,6.95
2018-04-02T01:24:07.642Z,6.85
2018-04-02T01:26:36.056Z,6.97
2018-04-02T01:29:04.490Z,7.12
2018-04-02T01:31:32.882Z,7.02
2018-04-02T01:34:01.320Z,6.92
2018-04-02T01:36:29.737Z,7.29
2018-04-02T01:38:58.234Z,7.29
2018-04-02T01:41:26.925Z,7.34
2018-04-02T01:43:55.341Z,7.43
2018-04-02T01:46:23.781Z,7.21
2018-04-02T01:48:52.202Z,7.17
2018-04-02T01:51:20.691Z,7.20
2018-04-02T01:53:49.095Z,6.96
2018-04-02T01:56:17.535Z,6.86
2018-04-02T01:58:45.972Z,6.68
2018-04-02T02:01:14.389Z,6.55
2018-04-02T02:03:42.779Z,6.73
2018-04-02T02:06:11.236Z,6.82
2018-04-02T02:08:39.699Z,6.75
2018-04-02T02:11:08.132Z,6.90
2018-04-02T02:13:36.564Z,6.87
2018-04-02T02:16:05.001Z,7.01
2018-04-02T02:18:33.519Z,7.15
2018-04-02T02:21:02.106Z,7.06
2018-04-02T02:23:30.551Z,7.04
2018-04-02T02:25:58.939Z,7.16
2018-04-02T02:28:27.357Z,7.09
2018-04-02T02:30:55.736Z,6.90
2018-04-02T02:33:24.490Z,6.88
2018-04-02T02:35:52.953Z,6.67
2018-04-02T02:38:21.347Z,6.69
2018-04-02T02:40:49.778Z,6.87
2018-04-02T02:43:18.182Z,6.63
2018-04-02T02:45:46.617Z,6.64
2018-04-02T02:48:15.022Z,6.60
2018-04-02T02:50:43.537Z,6.61
2018-04-02T02:53:11.920Z,6.70
2018-04-02T02:55:40.359Z,6.76
2018-04-02T02:58:08.734Z,6.83
2018-04-02T03:00:37.159Z,6.83
2018-04-02T03:03:05.586Z,6.97
2018-04-02T03:05:34.005Z,6.87
2018-04-02T03:08:02.476Z,7.13
2018-04-02T03:10:30.868Z,7.16
2018-04-02T03:12:59.340Z,7.30
2018-04-02T03:15:27.757Z,7.30
2018-04-02T03:17:56.209Z,7.40
2018-04-02T03:20:24.614Z,7.28
2018-04-02T03:22:53.218Z,7.38
2018-04-02T03:25:21.586Z,7.50
2018-04-02T03:27:50.008Z,7.45
2018-04-02T03:30:18.417Z,7.51
2018-04-02T03:32:46.804Z,7.52
2018-04-02T03:35:15.269Z,7.33
2018-04-02T03:37:43.697Z,7.53
2018-04-02T03:40:12.129Z,7.49
2018-04-02T03:42:40.596Z,7.68
2018-04-02T03:45:09.029Z,7.65
2018-04-02T03:47:37.474Z,7.67
2018-04-02T03:50:05.907Z,7.80
2018-04-02T03:52:34.348Z,7.63
2018-04-02T03:55:02.760Z,7.64
2018-04-02T03:57:31.201Z,7.72
2018-04-02T03:59:59.734Z,7.59
2018-04-02T04:02:28.150Z,7.49
2018-04-02T04:04:56.617Z,7.33
2018-04-02T04:07:25.015Z,7.31
2018-04-02T04:09:53.418Z,7.29
2018-04-02T04:12:21.908Z,7.13
2018-04-02T04:14:50.315Z,7.30
2018-04-02T04:17:18.750Z,7.30
2018-04-02T04:19:47.233Z,7.20
2018-04-02T04:22:15.687Z,7.14
2018-04-02T04:24:44.528Z,7.24
2018-04-02T04:27:13.110Z,7.54
2018-04-02T04:29:41.547Z,7.52
2018-04-02T04:32:09.989Z,7.52
2018-04-02T04:34:38.454Z,7.44
2018-04-02T04:37:06.862Z,7.30
2018-04-02T04:39:35.290Z,7.41
2018-04-02T04:42:03.720Z,7.52
2018-04-02T04:44:32.101Z,7.44
2018-04-02T04:47:00.501Z,7.53
2018-04-02T04:49:28.920Z,7.30
2018-04-02T04:51:57.333Z,7.40
2018-04-02T04:54:25.716Z,7.35
2018-04-02T04:56:54.164Z,7.32
2018-04-02T04:59:22.669Z,7.38
2018-04-02T05:01:51.021Z,7.34
2018-04-02T05:04:19.461Z,7.34
2018-04-02T05:06:47.850Z,7.22
2018-04-02T05:09:16.248Z,7.13
2018-04-02T05:11:44.689Z,7.11
2018-04-02T05:14:13.080Z,7.13
2018-04-02T05:16:41.548Z,7.40
2018-04-02T05:19:10.134Z,7.55
2018-04-02T05:21:38.545Z,7.44
2018-04-02T05:24:06.961Z,7.46
2018-04-02T05:26:35.387Z,7.41
2018-04-02T05:29:03.823Z,7.25
2018-04-02T05:31:32.232Z,7.07
2018-04-02T05:34:00.680Z,7.00
2018-04-02T05:36:29.101Z,7.04
2018-04-02T05:38:57.700Z,6.77
2018-04-02T05:41:26.140Z,6.77
2018-04-02T05:43:54.509Z,6.65
2018-04-02T05:46:22.951Z,6.58
2018-04-02T05:48:51.406Z,6.42
2018-04-02T05:51:19.841Z,6.39
2018-04-02T05:53:48.227Z,6.31
2018-04-02T05:56:16.709Z,6.33
2018-04-02T05:58:45.135Z,6.18
2018-04-02T06:01:13.552Z,6.17
2018-04-02T06:03:42.162Z,6.08
2018-04-02T06:06:10.546Z,6.42
2018-04-02T06:08:38.993Z,6.41
2018-04-02T06:11:07.401Z,6.40
2018-04-02T06:13:35.830Z,6.53
2018-04-02T06:16:04.470Z,6.69
2018-04-02T06:18:32.874Z,6.71
2018-04-02T06:21:01.342Z,6.82
2018-04-02T06:23:29.757Z,7.04
2018-04-02T06:25:58.177Z,7.17
2018-04-02T06:28:26.596Z,7.34
2018-04-02T06:30:55.087Z,7.50
2018-04-02T06:33:23.552Z,7.25
2018-04-02T06:35:51.973Z,7.78
2018-04-02T06:38:20.421Z,7.63
2018-04-02T06:40:48.879Z,7.12
2018-04-02T06:43:17.265Z,6.64
2018-04-02T06:45:45.751Z,6.18
2018-04-02T06:48:14.160Z,5.67
2018-04-02T06:50:42.556Z,5.51
2018-04-02T06:53:11.002Z,5.58
2018-04-02T06:55:39.404Z,5.59
2018-04-02T06:58:07.851Z,5.62
2018-04-02T07:00:36.265Z,5.91
2018-04-02T07:03:04.699Z,5.85
2018-04-02T07:05:33.125Z,6.10
2018-04-02T07:08:01.635Z,6.45
2018-04-02T07:10:30.212Z,6.43
2018-04-02T07:12:58.868Z,6.75
2018-04-02T07:15:27.295Z,6.69
2018-04-02T07:17:55.684Z,6.81
2018-04-02T07:20:24.097Z,7.02
2018-04-02T07:22:52.530Z,7.00
2018-04-02T07:25:20.981Z,7.29
2018-04-02T07:27:49.410Z,7.20
2018-04-02T07:30:17.849Z,7.20
2018-04-02T07:32:46.266Z,7.35
2018-04-02T07:35:14.671Z,7.20
2018-04-02T07:37:43.070Z,7.34
2018-04-02T07:40:11.523Z,7.74
2018-04-02T07:42:40.132Z,7.99
2018-04-02T07:45:08.575Z,8.09
2018-04-02T07:47:36.958Z,8.50
2018-04-02T07:50:05.356Z,8.86
2018-04-02T07:52:33.733Z,8.90
2018-04-02T07:55:02.121Z,8.72
2018-04-02T07:57:30.536Z,8.49
2018-04-02T07:59:58.933Z,8.74
2018-04-02T08:02:27.417Z,9.04
2018-04-02T08:04:55.827Z,9.07
2018-04-02T08:07:24.265Z,9.49
2018-04-02T08:09:52.698Z,9.31
2018-04-02T08:12:21.132Z,9.38
2018-04-02T08:14:49.509Z,9.18
2018-04-02T08:17:17.876Z,9.30
2018-04-02T08:19:46.355Z,9.20
2018-04-02T08:22:14.740Z,9.47
2018-04-02T08:24:43.153Z,9.46
2018-04-02T08:27:11.588Z,9.92
2018-04-02T08:29:40.023Z,9.73
2018-04-02T08:32:08.471Z,9.87
2018-04-02T08:34:36.918Z,9.49
2018-04-02T08:37:05.332Z,9.51
2018-04-02T08:39:33.712Z,9.69
2018-04-02T08:42:02.214Z,9.64
2018-04-02T08:44:30.723Z,9.26
2018-04-02T08:46:59.145Z,9.43
2018-04-02T08:49:27.528Z,9.45
2018-04-02T08:51:55.921Z,9.38
2018-04-02T08:54:24.441Z,9.39
2018-04-02T08:56:52.879Z,9.24
2018-04-02T08:59:21.487Z,9.37
2018-04-02T09:01:49.856Z,9.75
2018-04-02T09:04:18.254Z,10.30
2018-04-02T09:06:46.622Z,9.49
2018-04-02T09:09:15.040Z,9.33
2018-04-02T09:11:43.433Z,9.46
2018-04-02T09:14:11.846Z,9.79
2018-04-02T09:16:40.322Z,9.66
2018-04-02T09:19:08.740Z,9.29
2018-04-02T09:21:37.170Z,9.37
2018-04-02T09:24:05.583Z,9.43
2018-04-02T09:26:34.133Z,9.17
2018-04-02T09:29:02.553Z,9.15
2018-04-02T09:31:30.984Z,8.99
2018-04-02T09:33:59.405Z,8.95
2018-04-02T09:36:27.818Z,8.89
2018-04-02T09:38:56.224Z,9.16
2018-04-02T09:41:24.637Z,9.37
2018-04-02T09:43:53.054Z,10.10
2018-04-02T09:46:21.445Z,10.47
2018-04-02T09:48:49.938Z,10.09
2018-04-02T09:51:18.369Z,10.20
2018-04-02T09:53:46.754Z,9.82
2018-04-02T09:56:15.198Z,9.99
2018-04-02T09:58:43.549Z,9.79
2018-04-02T10:01:11.977Z,9.70
2018-04-02T10:03:40.364Z,9.58
2018-04-02T10:06:09.156Z,9.61
2018-04-02T10:08:37.544Z,9.22
2018-04-02T10:11:05.952Z,9.13
2018-04-02T10:13:34.558Z,9.04
2018-04-02T10:16:02.993Z,8.97
2018-04-02T10:18:31.505Z,8.70
2018-04-02T10:21:05.805Z,8.67
2018-04-02T10:23:34.172Z,8.74
2018-04-02T10:26:02.588Z,8.45
2018-04-02T10:28:31.055Z,8.66
2018-04-02T10:30:59.457Z,8.88
2018-04-02T10:33:27.864Z,9.63
2018-04-02T10:35:56.311Z,9.85
2018-04-02T10:38:24.720Z,9.40
2018-04-02T10:40:53.074Z,10.03
2018-04-02T10:43:21.673Z,9.98
2018-04-02T10:45:50.051Z,10.00
2018-04-02T10:48:18.441Z,10.32
2018-04-02T10:50:46.989Z,9.64
2018-04-02T10:53:15.371Z,10.42
2018-04-02T10:55:43.777Z,11.22
2018-04-02T10:58:12.545Z,11.49
2018-04-02T11:00:40.968Z,12.69
2018-04-02T11:03:09.350Z,11.74
2018-04-02T11:05:37.817Z,10.79
2018-04-02T11:08:06.252Z,11.02
2018-04-02T11:10:34.643Z,10.84
2018-04-02T11:13:03.046Z,10.58
2018-04-02T11:15:31.460Z,10.67
2018-04-02T11:17:59.881Z,10.56
2018-04-02T11:20:28.682Z,10.45
2018-04-02T11:22:57.076Z,10.70
2018-04-02T11:25:25.475Z,11.26
2018-04-02T11:27:53.915Z,11.29
2018-04-02T11:30:22.309Z,11.37
2018-04-02T11:32:50.786Z,11.29
2018-04-02T11:35:19.742Z,11.76
2018-04-02T11:37:48.129Z,12.60
2018-04-02T11:40:16.542Z,12.48
2018-04-02T11:42:45.341Z,12.32
2018-04-02T11:45:13.741Z,11.93
2018-04-02T11:47:42.142Z,11.76
2018-04-02T11:50:10.984Z,11.80
2018-04-02T11:52:39.389Z,11.48
2018-04-02T11:55:07.777Z,12.51
2018-04-02T11:57:36.223Z,14.04
2018-04-02T12:00:04.664Z,12.94
2018-04-02T12:02:33.070Z,14.11
2018-04-02T12:05:01.524Z,14.27
2018-04-02T12:07:29.920Z,13.28
2018-04-02T12:09:58.306Z,13.57
2018-04-02T12:12:26.794Z,13.22
2018-04-02T12:14:55.197Z,13.12
2018-04-02T12:17:23.577Z,12.79
2018-04-02T12:19:52.344Z,13.54
2018-04-02T12:22:20.729Z,13.60
2018-04-02T12:24:49.113Z,13.21
2018-04-02T12:27:18.036Z,13.00
2018-04-02T12:29:46.418Z,12.61
2018-04-02T12:32:14.821Z,12.31
2018-04-02T12:34:43.285Z,12.25
2018-04-02T12:37:11.665Z,12.37
2018-04-02T12:39:40.086Z,12.69
2018-04-02T12:42:08.585Z,13.05
2018-04-02T12:44:36.984Z,12.83
2018-04-02T12:47:05.401Z,12.28
2018-04-02T12:49:34.276Z,11.79
2018-04-02T12:52:02.661Z,12.04
2018-04-02T12:54:31.035Z,11.76
2018-04-02T12:57:00.099Z,11.81
2018-04-02T12:59:28.500Z,13.63
2018-04-02T13:01:56.923Z,14.03
2018-04-02T13:04:25.365Z,14.66
2018-04-02T13:06:53.752Z,16.72
2018-04-02T13:09:22.130Z,16.56
2018-04-02T13:11:50.545Z,15.15
2018-04-02T13:14:18.952Z,15.67
2018-04-02T13:16:47.852Z,14.22
2018-04-02T13:19:16.262Z,14.11
2018-04-02T13:21:44.673Z,14.71
2018-04-02T13:24:13.443Z,14.78
2018-04-02T13:26:41.853Z,14.29
2018-04-02T13:29:10.254Z,15.19
2018-04-02T13:31:39.093Z,16.94
2018-04-02T13:34:07.499Z,17.61
2018-04-02T13:36:35.889Z,17.90
2018-04-02T13:39:04.690Z,19.69
2018-04-02T13:41:33.353Z,19.49
2018-04-02T13:44:01.752Z,19.38
2018-04-02T13:46:30.169Z,20.74
2018-04-02T13:48:58.557Z,20.59
2018-04-02T13:51:26.998Z,20.13
2018-04-02T13:53:55.395Z,19.67
2018-04-02T13:56:23.783Z,19.03
2018-04-02T13:58:52.429Z,19.18
2018-04-02T14:01:20.921Z,16.92
2018-04-02T14:03:49.477Z,15.77
2018-04-02T14:06:17.869Z,15.36
2018-04-02T14:08:46.288Z,16.63
2018-04-02T14:11:14.688Z,17.81
2018-04-02T14:13:43.093Z,17.40
2018-04-02T14:16:11.538Z,16.67
2018-04-02T14:18:39.961Z,16.72
2018-04-02T14:21:08.357Z,18.38
2018-04-02T14:23:38.233Z,17.49
2018-04-02T14:26:06.662Z,17.26
2018-04-02T14:28:35.116Z,16.06
2018-04-02T14:31:03.549Z,15.28
2018-04-02T14:33:32.937Z,14.94
2018-04-02T14:36:01.408Z,15.61
2018-04-02T14:38:29.878Z,17.81
2018-04-02T14:40:58.458Z,17.68
2018-04-02T14:43:26.836Z,15.07
2018-04-02T14:45:55.904Z,15.27
2018-04-02T14:48:25.676Z,14.59
2018-04-02T14:50:54.097Z,14.12
2018-04-02T14:53:22.524Z,13.76
2018-04-02T14:55:51.458Z,15.53
2018-04-02T14:58:19.921Z,14.68
2018-04-02T15:00:48.364Z,15.50
2018-04-02T15:03:17.125Z,17.61
2018-04-02T15:05:45.544Z,18.48
2018-04-02T15:08:14.056Z,19.97
2018-04-02T15:10:42.556Z,20.36
2018-04-02T15:13:11.095Z,17.20
2018-04-02T15:15:39.578Z,16.75
2018-04-02T15:18:08.926Z,16.85
2018-04-02T15:20:37.353Z,18.86
2018-04-02T15:23:05.762Z,20.17
2018-04-02T15:25:34.231Z,21.81
2018-04-02T15:28:02.661Z,21.11
2018-04-02T15:30:31.206Z,18.66
2018-04-02T15:32:59.641Z,18.34
2018-04-02T15:35:28.063Z,15.83
2018-04-02T15:37:56.509Z,14.56
2018-04-02T15:40:24.924Z,14.08
2018-04-02T15:42:53.486Z,14.13
2018-04-02T15:45:22.066Z,14.40
2018-04-02T15:47:50.475Z,14.24
2018-04-02T15:50:18.960Z,14.30
2018-04-02T15:52:47.373Z,16.18
2018-04-02T15:55:15.869Z,15.06
2018-04-02T15:57:44.271Z,16.17
2018-04-02T16:00:12.744Z,17.25
2018-04-02T16:02:41.141Z,17.75
2018-04-02T16:05:09.625Z,17.57
2018-04-02T16:07:38.054Z,17.75
2018-04-02T16:10:06.475Z,17.31
2018-04-02T16:12:34.909Z,16.97
2018-04-02T16:15:03.349Z,17.11
2018-04-02T16:17:31.752Z,16.83
2018-04-02T16:20:00.282Z,16.72
2018-04-02T16:22:28.701Z,17.09
2018-04-02T16:24:57.081Z,16.70
2018-04-02T16:27:25.658Z,16.73
2018-04-02T16:29:54.058Z,16.34
2018-04-02T16:32:22.440Z,15.71
2018-04-02T16:34:50.921Z,15.13
2018-04-02T16:37:19.317Z,13.98
2018-04-02T16:39:47.775Z,12.96
2018-04-02T16:42:16.257Z,12.33
2018-04-02T16:44:44.649Z,12.03
2018-04-02T16:47:13.276Z,11.77
2018-04-02T16:49:41.697Z,11.41
2018-04-02T16:52:10.077Z,11.46
2018-04-02T16:54:38.485Z,11.40
2018-04-02T16:57:06.953Z,11.24
2018-04-02T16:59:35.400Z,11.16
2018-04-02T17:02:03.902Z,10.97
2018-04-02T17:04:32.397Z,10.88
2018-04-02T17:07:00.898Z,10.79
2018-04-02T17:09:29.356Z,10.73
2018-04-02T17:11:57.841Z,10.62
2018-04-02T17:14:26.241Z,10.59
2018-04-02T17:16:54.660Z,10.56
2018-04-02T17:19:23.194Z,10.42
2018-04-02T17:21:51.667Z,10.34
2018-04-02T17:24:20.132Z,10.13
2018-04-02T17:26:48.676Z,10.04
2018-04-02T17:29:17.107Z,10.28
2018-04-02T17:31:45.906Z,10.12
2018-04-02T17:34:14.352Z,9.99
2018-04-02T17:36:42.928Z,10.14
2018-04-02T17:39:11.372Z,10.11
2018-04-02T17:41:39.810Z,10.17
2018-04-02T17:44:08.228Z,10.05
2018-04-02T17:46:36.632Z,9.81
2018-04-02T17:49:05.117Z,9.50
2018-04-02T17:51:33.564Z,9.45
2018-04-02T17:54:02.036Z,9.09
2018-04-02T17:56:30.468Z,9.00
2018-04-02T17:58:58.943Z,8.96
2018-04-02T18:01:27.372Z,8.71
2018-04-02T18:03:55.779Z,8.44
2018-04-02T18:06:24.261Z,8.00
2018-04-02T18:08:52.655Z,7.92
2018-04-02T18:11:21.153Z,7.98
2018-04-02T18:13:49.556Z,8.03
2018-04-02T18:16:17.991Z,7.90
2018-04-02T18:18:46.434Z,8.13
2018-04-02T18:21:14.902Z,8.29
2018-04-02T18:23:43.307Z,8.11
2018-04-02T18:26:11.760Z,8.25
2018-04-02T18:28:40.129Z,8.10
2018-04-02T18:31:08.575Z,8.23
2018-04-02T18:33:37.026Z,8.16
2018-04-02T18:36:05.460Z,8.12
2018-04-02T18:38:33.862Z,7.98
2018-04-02T18:41:02.271Z,8.01
2018-04-02T18:43:30.684Z,7.83
2018-04-02T18:45:59.149Z,7.82
2018-04-02T18:48:27.631Z,8.03
2018-04-02T18:50:56.103Z,7.91
2018-04-02T18:53:24.509Z,7.88
2018-04-02T18:55:52.973Z,7.75
2018-04-02T18:58:21.448Z,7.82
2018-04-02T19:00:49.866Z,7.79
2018-04-02T19:03:18.299Z,7.81
2018-04-02T19:05:46.724Z,7.77
2018-04-02T19:08:15.157Z,7.52
2018-04-02T19:10:43.562Z,7.51
2018-04-02T19:13:12.009Z,7.61
2018-04-02T19:15:40.450Z,7.56
2018-04-02T19:18:08.901Z,7.48
2018-04-02T19:20:37.323Z,7.45
2018-04-02T19:23:05.790Z,7.26
2018-04-02T19:25:34.228Z,7.29
2018-04-02T19:28:02.753Z,7.21
2018-04-02T19:30:31.241Z,7.42
2018-04-02T19:32:59.888Z,6.77
2018-04-02T19:35:28.343Z,6.63
2018-04-02T19:37:56.770Z,6.60
2018-04-02T19:40:25.225Z,6.88
2018-04-02T19:42:53.611Z,7.27
2018-04-02T19:45:22.058Z,7.52
2018-04-02T19:47:50.452Z,7.46
2018-04-02T19:50:18.840Z,7.36
2018-04-02T19:52:47.320Z,7.50
2018-04-02T19:55:15.811Z,7.58
2018-04-02T19:57:44.307Z,7.54
2018-04-02T20:00:12.737Z,7.41
2018-04-02T20:02:41.218Z,7.17
2018-04-02T20:05:09.746Z,7.15
2018-04-02T20:07:38.184Z,6.98
2018-04-02T20:10:06.751Z,7.11
2018-04-02T20:12:35.198Z,6.89
2018-04-02T20:15:03.626Z,6.65
2018-04-02T20:17:32.067Z,6.81
2018-04-02T20:20:00.516Z,6.76
2018-04-02T20:22:29.030Z,6.92
2018-04-02T20:24:57.480Z,6.89
2018-04-02T20:27:25.858Z,6.88
2018-04-02T20:29:54.305Z,6.90
2018-04-02T20:32:22.751Z,6.88
2018-04-02T20:34:51.286Z,6.92
2018-04-02T20:37:19.725Z,6.77
2018-04-02T20:39:48.124Z,7.03
2018-04-02T20:42:16.583Z,7.01
2018-04-02T20:44:44.961Z,6.97
2018-04-02T20:47:13.374Z,6.88
2018-04-02T20:49:41.820Z,6.82
2018-04-02T20:52:10.260Z,6.89
2018-04-02T20:54:38.712Z,6.82
2018-04-02T20:57:07.106Z,6.64
2018-04-02T20:59:35.556Z,6.66
2018-04-02T21:02:03.983Z,6.41
2018-04-02T21:04:32.396Z,6.43
2018-04-02T21:07:00.809Z,6.31
2018-04-02T21:09:29.237Z,6.43
2018-04-02T21:12:00.311Z,6.46
2018-04-02T21:14:28.787Z,6.42
2018-04-02T21:16:57.188Z,6.38
2018-04-02T21:19:25.694Z,6.43
2018-04-02T21:21:54.132Z,6.38
2018-04-02T21:24:22.586Z,6.23
2018-04-02T21:26:51.006Z,5.58
2018-04-02T21:29:19.418Z,5.50
2018-04-02T21:31:47.860Z,5.59
2018-04-02T21:34:16.267Z,5.54
2018-04-02T21:36:44.670Z,5.39
2018-04-02T21:39:13.066Z,5.62
2018-04-02T21:41:41.521Z,5.74
2018-04-02T21:44:09.957Z,5.78
2018-04-02T21:46:38.339Z,5.45
2018-04-02T21:49:06.777Z,5.71
2018-04-02T21:51:35.234Z,5.89
2018-04-02T21:54:03.776Z,5.79
2018-04-02T21:56:32.244Z,5.57
2018-04-02T21:59:00.688Z,5.54
2018-04-02T22:01:29.151Z,5.31
2018-04-02T22:03:57.597Z,5.74
2018-04-02T22:06:37.729Z,5.49
2018-04-02T22:09:06.219Z,5.44
2018-04-02T22:11:34.641Z,5.44
2018-04-02T22:14:03.050Z,5.49
2018-04-02T22:16:31.436Z,5.32
2018-04-02T22:18:59.821Z,5.36
2018-04-02T22:21:28.282Z,5.56
2018-04-02T22:23:56.674Z,5.55
2018-04-02T22:26:25.134Z,5.36
2018-04-02T22:28:53.537Z,5.59
2018-04-02T22:31:21.990Z,5.51
2018-04-02T22:33:50.425Z,5.56
2018-04-02T22:36:18.881Z,5.36
2018-04-02T22:38:47.271Z,5.59
2018-04-02T22:41:15.662Z,5.62
2018-04-02T22:43:44.117Z,5.42
2018-04-02T22:46:12.527Z,5.27
2018-04-02T22:48:40.981Z,5.49
2018-04-02T22:51:09.409Z,5.51
2018-04-02T22:53:37.830Z,5.55
2018-04-02T22:56:06.258Z,5.54
2018-04-02T22:58:34.655Z,5.42
2018-04-02T23:01:03.086Z,5.48
2018-04-02T23:03:31.570Z,5.30
2018-04-02T23:05:59.991Z,5.47
2018-04-02T23:08:28.395Z,5.10
2018-04-02T23:10:56.853Z,4.77
2018-04-02T23:13:25.775Z,5.08
2018-04-02T23:15:54.234Z,5.06
2018-04-02T23:18:22.627Z,5.05
2018-04-02T23:20:51.258Z,4.89
2018-04-02T23:23:19.701Z,4.85
2018-04-02T23:25:48.129Z,4.83
2018-04-02T23:28:16.571Z,4.88
2018-04-02T23:30:44.998Z,4.71
2018-04-02T23:33:13.455Z,4.49
2018-04-02T23:35:41.885Z,4.73
2018-04-02T23:38:10.322Z,4.82
2018-04-02T23:40:38.777Z,4.72
2018-04-02T23:43:07.205Z,4.58
2018-04-02T23:45:35.653Z,4.76
2018-04-02T23:48:04.046Z,4.65
2018-04-02T23:50:32.483Z,4.52
2018-04-02T23:53:00.939Z,4.25
2018-04-02T23:55:29.392Z,4.41
2018-04-02T23:57:57.963Z,4.52
